Flight Track Log - Related Links

Times and Time Zones

All times are in EDT time to prevent confusion due to time zone crossing. See the AAY844 flight status page for this flight to view local times or setup timezone preferences in your user account.


Time Position Orientation Groundspeed Altitude Reporting Facility
EDT Latitude Longitude Course Direction KTS MPH feet Rate Location/Type
Mon 03:07:34 PM 27.9333 -82.7000 16° North 185 213 1,000  Level Tampa TRACON
Mon 03:09:20 PM 28.0322 -82.6678 16° North 261 300 4,000 2,321 Climbing Miami Center
Mon 03:10:22 PM 28.1272 -82.6772 355° North 282 325 7,500 2,855 Climbing Miami Center
Mon 03:11:24 PM 28.2061 -82.6864 354° North 282 325 9,900 1,854 Climbing Miami Center
Mon 03:12:25 PM 28.2928 -82.6983 353° North 304 350 11,300 1,415 Climbing Miami Center
Mon 03:13:27 PM 28.3942 -82.7119 353° North 356 410 12,800 1,694 Climbing Miami Center
Mon 03:14:29 PM 28.5031 -82.7247 354° North 385 443 14,800 1,984 Climbing Miami Center
Mon 03:15:31 PM 28.6192 -82.7267 359° North 409 471 16,900 1,887 Climbing Miami Center
Mon 03:16:33 PM 28.7333 -82.7139 North 410 472 18,700 1,707 Climbing Miami Center
Mon 03:17:34 PM 28.8775 -82.7011 North 431 496 20,400 1,561 Climbing Miami Center
Mon 03:18:36 PM 29.0019 -82.6894 North 444 511 21,900 1,412 Climbing Miami Center
Mon 03:19:33 PM 29.1056 -82.6786 North 439 505 23,200 1,282 Climbing Jacksonville Center
Mon 03:20:33 PM 29.2497 -82.6664 North 451 519 24,400 1,300 Climbing Jacksonville Center
Mon 03:21:33 PM 29.3769 -82.6542 North 462 532 25,800 1,300 Climbing Jacksonville Center
Mon 03:22:33 PM 29.5083 -82.6419 North 462 532 27,000 1,250 Climbing Jacksonville Center
Mon 03:23:33 PM 29.6419 -82.6297 North 467 537 28,300 950 Climbing Jacksonville Center
Mon 03:24:33 PM 29.7736 -82.6175 North 467 537 28,900 300 Climbing Jacksonville Center
Mon 03:25:33 PM 29.9028 -82.6050 North 462 532 28,900  Level Jacksonville Center
Mon 03:26:33 PM 30.0072 -82.5950 North 462 532 28,900  Level Jacksonville Center
Mon 03:27:33 PM 30.1514 -82.5875 North 462 532 28,900  Level Jacksonville Center
Mon 03:28:33 PM 30.2808 -82.5750 North 462 532 28,900  Level Jacksonville Center
Mon 03:29:33 PM 30.4103 -82.5625 North 462 532 28,900  Level Jacksonville Center
Mon 03:30:33 PM 30.5311 -82.5067 22° Northeast 455 524 28,900  Level Jacksonville Center
Mon 03:31:33 PM 30.6372 -82.4217 35° Northeast 455 524 28,900  Level Jacksonville Center
Mon 03:32:33 PM 30.7475 -82.3342 34° Northeast 460 529 28,900  Level Jacksonville Center
Mon 03:33:33 PM 30.8536 -82.2489 35° Northeast 466 536 28,900 50 Level Jacksonville Center
Mon 03:34:33 PM 30.9617 -82.1633 34° Northeast 466 536 29,000 650 Climbing Jacksonville Center
Mon 03:35:33 PM 31.0697 -82.0753 35° Northeast 466 536 30,200 950 Climbing Jacksonville Center
Mon 03:36:33 PM 31.1778 -81.9917 33° Northeast 466 536 30,900 350 Climbing Jacksonville Center
Mon 03:37:33 PM 31.2836 -81.9106 33° Northeast 456 525 30,900 50 Level Jacksonville Center
Mon 03:38:33 PM 31.3875 -81.8194 37° Northeast 462 532 31,000 50 Climbing Jacksonville Center
Mon 03:39:33 PM 31.5078 -81.7228 34° Northeast 468 539 31,000  Level Jacksonville Center
Mon 03:40:33 PM 31.6111 -81.6314 37° Northeast 457 526 31,000  Level Jacksonville Center
Mon 03:41:33 PM 31.7022 -81.5447 39° Northeast 463 533 31,000  Level Jacksonville Center
Mon 03:42:33 PM 31.8117 -81.4403 39° Northeast 468 539 31,000 -50 Level Jacksonville Center
Mon 03:43:33 PM 31.9044 -81.3508 39° Northeast 473 544 30,900 -50 Descending Jacksonville Center
Mon 03:44:33 PM 32.0056 -81.2536 39° Northeast 473 544 30,900  Level Jacksonville Center
Mon 03:45:33 PM 32.1128 -81.1536 38° Northeast 468 539 30,900 50 Level Jacksonville Center
Mon 03:46:33 PM 32.2242 -81.0483 39° Northeast 468 539 31,000 50 Climbing Jacksonville Center
Mon 03:47:33 PM 32.3250 -80.9528 39° Northeast 462 532 31,000 -50 Level Jacksonville Center
Mon 03:48:33 PM 32.4175 -80.8622 40° Northeast 467 537 30,900 -50 Descending Jacksonville Center
Mon 03:49:33 PM 32.5181 -80.7639 39° Northeast 467 537 30,900  Level Jacksonville Center
Mon 03:50:33 PM 32.6208 -80.6653 39° Northeast 467 537 30,900  Level Jacksonville Center
Mon 03:51:33 PM 32.7233 -80.5664 39° Northeast 467 537 30,900  Level Jacksonville Center
Mon 03:52:33 PM 32.8239 -80.4675 40° Northeast 467 537 30,900  Level Jacksonville Center
Mon 03:53:33 PM 32.9264 -80.3683 39° Northeast 467 537 30,900 50 Level Jacksonville Center
Mon 03:54:33 PM 33.0306 -80.2661 39° Northeast 478 550 31,000 50 Climbing Jacksonville Center
Mon 03:55:33 PM 33.1328 -80.1664 39° Northeast 473 544 31,000 -50 Level Jacksonville Center
Mon 03:56:33 PM 33.2472 -80.0536 39° Northeast 478 550 30,900 -50 Descending Jacksonville Center
Mon 03:57:33 PM 33.3472 -79.9536 40° Northeast 478 550 30,900  Level Jacksonville Center
Mon 03:58:33 PM 33.4450 -79.8533 41° Northeast 472 543 30,900  Level Jacksonville Center
Mon 03:59:33 PM 33.5469 -79.7550 39° Northeast 467 537 30,900  Level Jacksonville Center
Mon 04:00:33 PM 33.6467 -79.6542 40° Northeast 467 537 30,900  Level Jacksonville Center
Mon 04:01:33 PM 33.7483 -79.5531 40° Northeast 467 537 30,900  Level Jacksonville Center
Mon 04:02:33 PM 33.8500 -79.4492 40° Northeast 467 537 30,900  Level Jacksonville Center
Mon 04:03:33 PM 33.9331 -79.3658 40° Northeast 460 529 30,900  Level Jacksonville Center
Mon 04:04:33 PM 34.0347 -79.2639 40° Northeast 460 529 30,900  Level Jacksonville Center
Mon 04:05:33 PM 34.1339 -79.1644 40° Northeast 465 535 30,900  Level Jacksonville Center
Mon 04:07:53 PM 34.3858 -78.9364 37° Northeast 463 533 30,900  Level Washington Center
Mon 04:08:54 PM 34.4989 -78.8528 31° Northeast 463 533 30,900 295 Level Washington Center
Mon 04:09:55 PM 34.6075 -78.7639 34° Northeast 469 540 31,500 645 Climbing Washington Center
Mon 04:10:55 PM 34.7097 -78.6869 32° Northeast 474 545 32,200 756 Climbing Washington Center
Mon 04:11:54 PM 34.8267 -78.5978 32° Northeast 468 539 33,000 403 Climbing Washington Center
Mon 04:12:54 PM 34.9353 -78.5156 32° Northeast 460 529 33,000  Level Washington Center
Mon 04:13:56 PM 35.0417 -78.4308 33° Northeast 460 529 33,000  Level Washington Center
Mon 04:14:53 PM 35.1500 -78.3481 32° Northeast 460 529 33,000  Level Washington Center
Mon 04:15:53 PM 35.2583 -78.2628 33° Northeast 460 529 33,000  Level Washington Center
Mon 04:16:54 PM 35.3558 -78.1872 32° Northeast 460 529 33,000  Level Washington Center
Mon 04:17:55 PM 35.4642 -78.1039 32° Northeast 460 529 33,000  Level Washington Center
Mon 04:18:53 PM 35.5744 -78.0206 32° Northeast 460 529 33,000  Level Washington Center
Mon 04:19:54 PM 35.6803 -77.9369 33° Northeast 460 529 33,000  Level Washington Center
Mon 04:20:56 PM 35.7883 -77.8556 31° Northeast 460 529 33,000  Level Washington Center
Mon 04:21:53 PM 35.8964 -77.7714 32° Northeast 460 529 33,000  Level Washington Center
Mon 04:22:54 PM 36.0042 -77.6844 33° Northeast 460 529 33,000  Level Washington Center
Mon 04:23:54 PM 36.1061 -77.5897 37° Northeast 460 529 33,000  Level Washington Center
Mon 04:24:53 PM 36.2078 -77.4944 37° Northeast 460 529 33,000  Level Washington Center
Mon 04:25:53 PM 36.3053 -77.4014 38° Northeast 452 520 33,000  Level Washington Center
Mon 04:26:54 PM 36.4067 -77.3031 38° Northeast 447 514 33,000  Level Washington Center
Mon 04:27:56 PM 36.5083 -77.2069 37° Northeast 452 520 33,000  Level Washington Center
Mon 04:28:53 PM 36.6117 -77.1083 37° Northeast 452 520 33,000  Level Washington Center
Mon 04:29:54 PM 36.7153 -77.0119 37° Northeast 457 526 33,000  Level Washington Center
Mon 04:30:54 PM 36.8289 -76.9075 36° Northeast 467 537 33,000  Level Washington Center
Mon 04:31:56 PM 36.9322 -76.8158 35° Northeast 461 531 33,000  Level Washington Center
Mon 04:32:53 PM 37.0353 -76.7186 37° Northeast 461 531 33,000  Level Washington Center
Mon 04:33:54 PM 37.1406 -76.6236 36° Northeast 456 525 33,000  Level Washington Center
Mon 04:34:55 PM 37.2436 -76.5283 36° Northeast 456 525 33,000  Level Washington Center
Mon 04:35:55 PM 37.3506 -76.4358 35° Northeast 456 525 33,000  Level Washington Center
Mon 04:36:53 PM 37.4556 -76.3375 37° Northeast 461 531 33,000  Level Washington Center
Mon 04:37:55 PM 37.5583 -76.2442 36° Northeast 461 531 33,000  Level Washington Center
Mon 04:38:55 PM 37.6650 -76.1453 36° Northeast 461 531 33,000 -50 Level Washington Center
Mon 04:39:54 PM 37.7592 -76.0672 33° Northeast 454 522 32,900  Descending Washington Center
Mon 04:40:54 PM 37.8619 -75.9625 39° Northeast 459 528 33,000 50 Climbing Washington Center
Mon 04:41:55 PM 37.9664 -75.8658 36° Northeast 459 528 33,000  Level Washington Center
Mon 04:42:53 PM 38.0708 -75.7658 37° Northeast 459 528 33,000  Level Washington Center
Mon 04:43:53 PM 38.1753 -75.6683 36° Northeast 459 528 33,000  Level Washington Center
Mon 04:44:55 PM 38.2794 -75.5733 36° Northeast 459 528 33,000  Level Washington Center
Mon 04:45:55 PM 38.4025 -75.4858 29° Northeast 459 528 33,000 -50 Level Washington Center
Mon 04:46:54 PM 38.5233 -75.4378 17° North 454 522 32,900 -50 Descending Washington Center
Mon 04:47:54 PM 38.6442 -75.3897 17° North 449 517 32,900  Level Washington Center
Mon 04:48:54 PM 38.7608 -75.3175 26° Northeast 449 517 32,900  Level Washington Center
Mon 04:50:56 PM 38.9686 -75.1136 43° Northeast 459 528 32,900  Level Washington Center
Mon 04:51:54 PM 39.0642 -75.0194 37° Northeast 473 544 32,900  Level Washington Center
Mon 04:52:55 PM 39.1697 -74.9222 36° Northeast 473 544 32,900  Level Washington Center
Mon 04:53:54 PM 39.2733 -74.8222 37° Northeast 473 544 32,900  Level Washington Center
Mon 04:54:54 PM 39.3789 -74.7164 38° Northeast 473 544 32,900  Level Washington Center
Mon 04:55:55 PM 39.4825 -74.6128 38° Northeast 473 544 32,900 -264 Level Washington Center
Mon 04:57:33 PM 39.6669 -74.4331 37° Northeast 466 536 32,200 -981 Descending New York Center
Mon 04:58:34 PM 39.7744 -74.3308 36° Northeast 471 542 30,300 -1,918 Descending New York Center
Mon 04:59:35 PM 39.8797 -74.2253 38° Northeast 471 542 28,300 -2,017 Descending New York Center
Mon 05:00:33 PM 39.9847 -74.1194 38° Northeast 471 542 26,300 -1,714 Descending New York Center
Mon 05:01:34 PM 40.0922 -74.0106 38° Northeast 476 548 24,900 -683 Descending New York Center
Mon 05:02:36 PM 40.1992 -73.9069 36° Northeast 476 548 24,900  Level New York Center
Mon 05:03:34 PM 40.2847 -73.8211 37° Northeast 476 548 24,900 -513 Level New York Center
Mon 05:04:33 PM 40.4044 -73.7008 37° Northeast 481 554 23,900 -1,400 Descending New York Center
Mon 05:05:34 PM 40.5114 -73.5908 38° Northeast 481 554 22,100 -1,646 Descending New York Center
Mon 05:07:17 PM 40.6833 -73.4139 38° Northeast 447 514 19,400 -1,127 Descending Boston Center
Mon 05:08:19 PM 40.7872 -73.3089 37° Northeast 418 481 19,000 -390 Descending Boston Center
Mon 05:09:20 PM 40.8750 -73.2092 41° Northeast 417 480 18,600 -1,024 Descending Boston Center
Mon 05:10:22 PM 40.9625 -73.1058 42° Northeast 417 480 16,900 -1,317 Descending Boston Center
Mon 05:11:23 PM 41.0497 -73.0044 41° Northeast 415 478 15,900 -1,328 Descending Boston Center
Mon 05:12:24 PM 41.1322 -72.9086 41° Northeast 395 455 14,200 -1,610 Descending Boston Center
Mon 05:13:26 PM 41.2272 -72.9094 360° North 357 411 12,600 -1,512 Descending Boston Center
Mon 05:14:27 PM 41.3089 -72.9961 321° Northwest 336 387 11,100 -829 Descending Boston Center
Mon 05:15:29 PM 41.3767 -73.0839 316° Northwest 318 366 10,900 -98 Descending Boston Center
Mon 05:16:30 PM 41.4392 -73.1656 316° Northwest 315 362 10,900  Level Boston Center
Mon 05:17:32 PM 41.5019 -73.2478 316° Northwest 315 362 10,900 49 Level Boston Center
Mon 05:18:33 PM 41.5686 -73.3336 316° Northwest 330 380 11,000  Climbing Boston Center
Mon 05:19:35 PM 41.6403 -73.4272 316° Northwest 332 382 10,900 -537 Descending Boston Center
Mon 05:20:36 PM 41.7031 -73.5111 315° West 322 371 9,900 -1,122 Descending Boston Center
Mon 05:21:38 PM 41.7594 -73.5861 315° West 293 337 8,600 -1,415 Descending Boston Center
Mon 05:22:39 PM 41.7842 -73.6828 289° West 280 322 7,000 -1,512 Descending Boston Center
Mon 05:23:41 PM 41.7536 -73.7728 246° West 268 308 5,500 -720 Descending Boston Center
Mon 05:25:34 PM 41.7000 -73.9500 248° West 262 302 4,900 -486 Descending New York TRACON
Mon 05:26:34 PM 41.6667 -74.0333 242° Southwest 261 300 4,100 -550 Descending New York TRACON
Mon 05:27:34 PM 41.6333 -74.1167 242° Southwest 260 299 3,800 -550 Descending New York TRACON
Mon 05:28:34 PM 41.6167 -74.2000 255° West 248 285 3,000 -474 Descending New York TRACON
Mon 05:29:28 PM 41.5833 -74.2667 236° Southwest 213 245 2,900 -50 Descending New York TRACON
Mon 05:30:34 PM 41.5667 -74.3500 255° West 201 231 2,900 48 Level New York TRACON
Mon 05:31:34 PM 41.5167 -74.3833 207° Southwest 200 230 3,000  Climbing New York TRACON
Mon 05:32:34 PM 41.4833 -74.3500 143° Southeast 185 213 2,900 -50 Descending New York TRACON
Mon 05:33:34 PM 41.4833 -74.2833 90° East 175 201 2,900 -450 Level New York TRACON
Mon 05:34:34 PM 41.4833 -74.2333 90° East 157 181 2,000 -810 Descending New York TRACON
Mon 05:35:40 PM 41.5000 -74.1667 72° East 139 160 1,200 -727 Descending New York TRACON

Login

Don't have an account? Register now (free) for customized features, flight alerts, and more!